METAR Analyzer

一覧表示

Hello, Guest. (Login)

RJSN/KIJ  -  新潟

観測日時
2021-08-05 01:00 (UTC) (72分前)
気温
31
露点
26
湿数
5
相対湿度
74.8%
QNH
1008hPa
推定現地気圧
1007.9hPa
推定海面気圧
1008.0hPa
体感温度
26.8
(無風時)
29.5
HI
39.1
気温前日比
-1
体感温度前日比
-1.5
HI前日比
-5.1
水平視程
>10000m
鉛直視程
データなし
雲底高度
No dense clouds
V/I
VMC (VFR)
RVR
No RVR data
卓越風
7kt from 360°
ガスト
No gust
降水
報告なし
その他の天気
報告なし
少しの雲 @ 3000ft AGL

RJSN 050100Z 36007KT 9999 FEW030 31/26 Q1008

RJSD/SDS  -  佐渡